Weather at Eagle Airpark

Public forecast

Using degrees Fahrenheit for public forecast. Weather courtesy of forecast.io.

Closest aviation weather report (METAR) to Eagle Airpark

Closest report is Needles Airport, 7.3 nm (13.5 km) S. Retrieved 2021/06/13 10:56 UTC (39 minutes ago):

KEED 131056Z AUTO 00000KT 10SM CLR 26/M12 A2973 RMK AO2 SLP033 T02561122

Closest aviation forecast (TAF) to Eagle Airpark

Closest forecast is Needles Airport, 7.3 nm (13.5 km) S. Retrieved 2021/06/13 06:22 UTC (5 hours ago):

TAF KEED 130520Z 1306/1406 24009KT P6SM FEW250 FM130900 VRB05KT P6SM FEW250 FM131900 19013G22KT P6SM SKC